Time;durP1;ratioP1;P1;durP2;ratioP2;P2;SDS_P1;SDS_P2;PMS_P1;PMS_P2;Temp;Humidity;BMP_temperature;BMP_pressure;BME280_temperature;BME280_humidity;BME280_pressure;Samples;Min_cycle;Max_cycle;Signal;HPM_P1;HPM_P2
2023/09/14 00:01:31;;;;;;;;;;;15.50;99.90;;;;;;6726075;88;20053;-80
2023/09/14 00:11:31;;;;;;;;;;;15.30;99.90;;;;;;6731274;88;20136;-80
2023/09/14 00:21:32;;;;;;;;;;;15.20;99.90;;;;;;6719399;88;20076;-78
2023/09/14 00:31:34;;;;;;;;;;;15.20;99.90;;;;;;6725757;88;20076;-79
2023/09/14 00:41:34;;;;;;;;;;;15.10;99.90;;;;;;6752153;88;20097;-79
2023/09/14 00:51:34;;;;;;;;;;;14.80;99.90;;;;;;6746700;88;20053;-79
2023/09/14 01:01:35;;;;;;;;;;;14.80;99.90;;;;;;6742599;88;20059;-78
2023/09/14 01:11:36;;;;;;;;;;;14.50;99.90;;;;;;6744107;88;20073;-79
2023/09/14 01:21:55;;;;;;;;;;;14.40;99.90;;;;;;6742046;88;20078;-79
2023/09/14 01:31:55;;;;;;;;;;;14.20;99.90;;;;;;6742288;88;20087;-79
2023/09/14 01:41:57;;;;;;;;;;;14.30;99.90;;;;;;6746519;88;20062;-78
2023/09/14 01:51:57;;;;;;;;;;;14.50;99.90;;;;;;6738550;88;20490;-78
2023/09/14 02:01:57;;;;;;;;;;;14.50;99.90;;;;;;6741448;88;20057;-78
2023/09/14 02:11:58;;;;;;;;;;;14.30;99.90;;;;;;6742823;88;20196;-79
2023/09/14 02:21:58;;;;;;;;;;;14.20;99.90;;;;;;6746994;88;20069;-78
2023/09/14 02:31:59;;;;;;;;;;;13.90;99.90;;;;;;6756744;88;20071;-78
2023/09/14 02:42:00;;;;;;;;;;;13.80;99.90;;;;;;6761913;88;20074;-79
2023/09/14 02:52:00;;;;;;;;;;;13.80;99.90;;;;;;6761907;88;20523;-79
2023/09/14 03:02:01;;;;;;;;;;;13.70;99.90;;;;;;6760944;88;20088;-79
2023/09/14 03:12:01;;;;;;;;;;;13.70;99.90;;;;;;6756646;88;20108;-80
2023/09/14 03:22:01;;;;;;;;;;;13.50;99.90;;;;;;6739731;88;20127;-80
2023/09/14 03:32:02;;;;;;;;;;;13.40;99.90;;;;;;6744297;88;20074;-80
2023/09/14 03:42:03;;;;;;;;;;;13.50;99.90;;;;;;6749249;88;20268;-81
2023/09/14 03:52:03;;;;;;;;;;;13.50;99.90;;;;;;6740544;88;20053;-80
2023/09/14 04:02:04;;;;;;;;;;;13.50;99.90;;;;;;6749202;88;20054;-79
2023/09/14 04:12:05;;;;;;;;;;;13.30;99.90;;;;;;6728436;88;20134;-79
2023/09/14 04:22:06;;;;;;;;;;;13.20;99.90;;;;;;6727151;88;20058;-78
2023/09/14 04:32:07;;;;;;;;;;;13.10;99.90;;;;;;6725453;88;20128;-78
2023/09/14 04:42:07;;;;;;;;;;;13.20;99.90;;;;;;6735627;87;20146;-80
2023/09/14 04:52:08;;;;;;;;;;;13.30;99.90;;;;;;6740629;88;20104;-80
2023/09/14 05:02:08;;;;;;;;;;;13.40;99.90;;;;;;6756596;88;20473;-80
2023/09/14 05:12:09;;;;;;;;;;;13.40;99.90;;;;;;6735460;88;20054;-79
2023/09/14 05:22:09;;;;;;;;;;;13.50;99.90;;;;;;6725358;88;20053;-79
2023/09/14 05:32:10;;;;;;;;;;;13.70;99.90;;;;;;6709185;78;20112;-74
2023/09/14 05:42:10;;;;;;;;;;;13.70;99.90;;;;;;6696753;88;20055;-76
2023/09/14 05:52:11;;;;;;;;;;;13.80;99.90;;;;;;6712664;88;20053;-77
2023/09/14 06:02:11;;;;;;;;;;;13.70;99.90;;;;;;6699788;88;20521;-77
2023/09/14 06:12:18;;;;;;;;;;;13.60;99.90;;;;;;6702816;88;20089;-77
2023/09/14 06:22:18;;;;;;;;;;;13.70;99.90;;;;;;6699281;88;20103;-76
2023/09/14 06:32:19;;;;;;;;;;;13.60;99.90;;;;;;6707048;88;20079;-78
2023/09/14 06:42:19;;;;;;;;;;;13.60;99.90;;;;;;6711621;88;20055;-78
2023/09/14 06:52:19;;;;;;;;;;;13.60;99.90;;;;;;6709326;88;20081;-78
2023/09/14 07:02:20;;;;;;;;;;;13.60;99.90;;;;;;6707920;88;20064;-78
2023/09/14 07:12:21;;;;;;;;;;;13.80;99.90;;;;;;6709898;88;20076;-78
2023/09/14 07:22:21;;;;;;;;;;;13.70;99.90;;;;;;6713000;88;20107;-78
2023/09/14 07:32:21;;;;;;;;;;;13.90;99.90;;;;;;6711699;88;20718;-77
2023/09/14 07:42:22;;;;;;;;;;;14.10;99.90;;;;;;6711161;88;20078;-76
2023/09/14 07:52:23;;;;;;;;;;;14.30;99.90;;;;;;6714785;88;20080;-76
2023/09/14 08:02:25;;;;;;;;;;;14.40;99.90;;;;;;6719360;88;20587;-77
2023/09/14 08:12:26;;;;;;;;;;;14.60;99.90;;;;;;6708194;88;20104;-78
2023/09/14 08:22:27;;;;;;;;;;;14.80;99.90;;;;;;6709552;88;20560;-79
2023/09/14 08:32:27;;;;;;;;;;;15.00;99.90;;;;;;6706820;88;20081;-78
2023/09/14 08:42:28;;;;;;;;;;;15.20;99.90;;;;;;6694224;88;20050;-78
2023/09/14 08:52:28;;;;;;;;;;;15.90;99.90;;;;;;6691695;88;20080;-78
2023/09/14 09:02:30;;;;;;;;;;;16.30;99.90;;;;;;6696616;88;20077;-78
2023/09/14 09:12:30;;;;;;;;;;;16.70;99.90;;;;;;6696238;88;20212;-77
2023/09/14 09:22:31;;;;;;;;;;;17.30;99.90;;;;;;6686776;88;20096;-80
2023/09/14 09:32:31;;;;;;;;;;;18.40;99.90;;;;;;6705103;88;20189;-79
2023/09/14 09:42:32;;;;;;;;;;;18.50;99.90;;;;;;6709170;88;20687;-78
2023/09/14 09:52:33;;;;;;;;;;;17.80;99.90;;;;;;6705494;88;20071;-77
2023/09/14 10:02:34;;;;;;;;;;;18.50;99.90;;;;;;6707612;88;20135;-78
2023/09/14 10:12:37;;;;;;;;;;;19.60;99.90;;;;;;6709382;88;20499;-77
2023/09/14 10:22:40;;;;;;;;;;;20.00;99.90;;;;;;6712861;88;20166;-77
2023/09/14 10:32:42;;;;;;;;;;;21.20;99.90;;;;;;6711051;88;20512;-77
2023/09/14 10:42:42;;;;;;;;;;;22.00;99.90;;;;;;6714152;88;20051;-79
2023/09/14 10:52:43;;;;;;;;;;;22.40;99.90;;;;;;6709130;88;20063;-79
2023/09/14 11:02:43;;;;;;;;;;;22.60;99.90;;;;;;6718636;88;20235;-80
2023/09/14 11:12:44;;;;;;;;;;;24.30;99.90;;;;;;6703984;88;20571;-79
2023/09/14 11:22:44;;;;;;;;;;;24.20;99.90;;;;;;6709319;88;20070;-78
2023/09/14 11:32:45;;;;;;;;;;;24.80;99.90;;;;;;6726742;77;20068;-78
2023/09/14 11:43:06;;;;;;;;;;;24.10;99.90;;;;;;6739496;88;20478;-79
2023/09/14 11:53:08;;;;;;;;;;;26.90;96.50;;;;;;6733527;88;20111;-79
2023/09/14 12:03:09;;;;;;;;;;;26.40;93.70;;;;;;6734218;88;20565;-78
2023/09/14 12:13:13;;;;;;;;;;;25.60;95.90;;;;;;6730190;88;20166;-78
2023/09/14 12:23:14;;;;;;;;;;;25.60;94.90;;;;;;6738123;88;20052;-77
2023/09/14 12:33:15;;;;;;;;;;;25.40;95.10;;;;;;6735387;88;20536;-77
2023/09/14 12:43:16;;;;;;;;;;;25.40;95.20;;;;;;6734415;88;20063;-78
2023/09/14 12:53:17;;;;;;;;;;;26.20;94.40;;;;;;6730971;88;20050;-78
2023/09/14 13:03:19;;;;;;;;;;;26.30;95.20;;;;;;6742841;88;20063;-78
2023/09/14 13:13:21;;;;;;;;;;;27.00;93.00;;;;;;6734672;88;20518;-78
2023/09/14 13:23:21;;;;;;;;;;;26.10;92.80;;;;;;6728621;88;20493;-79
2023/09/14 13:33:22;;;;;;;;;;;25.40;92.70;;;;;;6726434;88;20074;-78
2023/09/14 13:43:22;;;;;;;;;;;25.50;93.10;;;;;;6731717;88;20075;-78
2023/09/14 13:53:23;;;;;;;;;;;25.50;92.20;;;;;;6728764;88;20759;-78
2023/09/14 14:03:23;;;;;;;;;;;26.50;92.60;;;;;;6727509;88;20094;-78
2023/09/14 14:13:24;;;;;;;;;;;26.60;92.60;;;;;;6726081;88;20062;-79
2023/09/14 14:23:25;;;;;;;;;;;26.90;92.40;;;;;;6731998;88;20135;-79
2023/09/14 14:33:25;;;;;;;;;;;26.20;92.00;;;;;;6731352;88;20085;-79
2023/09/14 14:43:26;;;;;;;;;;;26.40;91.70;;;;;;6720582;88;20046;-80
2023/09/14 14:53:26;;;;;;;;;;;26.70;92.10;;;;;;6718636;88;20158;-79
2023/09/14 15:03:27;;;;;;;;;;;26.10;92.20;;;;;;6725068;88;20179;-78
2023/09/14 15:13:27;;;;;;;;;;;25.80;92.20;;;;;;6724887;88;20602;-78
2023/09/14 15:23:28;;;;;;;;;;;25.50;93.00;;;;;;6727353;88;20085;-79
2023/09/14 15:33:28;;;;;;;;;;;25.70;91.90;;;;;;6732055;88;20054;-78
2023/09/14 15:43:29;;;;;;;;;;;24.20;93.00;;;;;;6736676;88;20116;-79
2023/09/14 15:53:29;;;;;;;;;;;24.90;92.90;;;;;;6742624;88;20549;-79
2023/09/14 16:03:30;;;;;;;;;;;24.70;93.80;;;;;;6736958;88;20523;-78
2023/09/14 16:13:30;;;;;;;;;;;24.60;93.50;;;;;;6737287;88;20074;-79
2023/09/14 16:23:31;;;;;;;;;;;24.70;93.00;;;;;;6735400;88;20197;-78
2023/09/14 16:33:31;;;;;;;;;;;24.40;93.60;;;;;;6732714;88;20109;-79
2023/09/14 16:43:32;;;;;;;;;;;23.80;94.20;;;;;;6728647;88;20090;-78
2023/09/14 16:53:34;;;;;;;;;;;23.20;95.60;;;;;;6728286;88;20070;-79
2023/09/14 17:03:35;;;;;;;;;;;22.50;96.20;;;;;;6740035;88;20076;-78
2023/09/14 17:13:36;;;;;;;;;;;22.00;96.90;;;;;;6736985;88;20054;-78
2023/09/14 17:23:36;;;;;;;;;;;21.60;98.10;;;;;;6735504;88;20059;-78
2023/09/14 17:33:37;;;;;;;;;;;21.20;99.20;;;;;;6731834;77;20074;-77
2023/09/14 17:43:40;;;;;;;;;;;20.60;99.90;;;;;;6715154;88;20678;-78
2023/09/14 17:53:42;;;;;;;;;;;20.20;99.90;;;;;;6709834;88;20082;-79
2023/09/14 18:03:43;;;;;;;;;;;19.80;99.90;;;;;;6718509;88;20064;-78
2023/09/14 18:13:44;;;;;;;;;;;19.50;99.90;;;;;;6719587;88;20036;-79
2023/09/14 18:23:44;;;;;;;;;;;19.30;99.90;;;;;;6720869;88;20159;-79
2023/09/14 18:33:45;;;;;;;;;;;19.00;99.90;;;;;;6709510;88;20082;-78
2023/09/14 18:43:45;;;;;;;;;;;18.40;99.90;;;;;;6712671;88;20082;-78
2023/09/14 18:53:46;;;;;;;;;;;18.30;99.90;;;;;;6718456;88;20092;-78
2023/09/14 19:03:47;;;;;;;;;;;18.10;99.90;;;;;;6719424;88;20534;-78
2023/09/14 19:13:47;;;;;;;;;;;17.90;99.90;;;;;;6715231;88;20064;-79
2023/09/14 19:23:48;;;;;;;;;;;17.60;99.90;;;;;;6718418;88;20229;-79
2023/09/14 19:33:49;;;;;;;;;;;17.50;99.90;;;;;;6717886;88;20099;-78
2023/09/14 19:43:49;;;;;;;;;;;17.40;99.90;;;;;;6723045;88;20063;-78
2023/09/14 19:53:49;;;;;;;;;;;17.10;99.90;;;;;;6725697;88;20052;-78
2023/09/14 20:03:50;;;;;;;;;;;16.80;99.90;;;;;;6728097;88;20112;-79
2023/09/14 20:13:50;;;;;;;;;;;16.50;99.90;;;;;;6721849;88;20099;-80
2023/09/14 20:23:51;;;;;;;;;;;16.40;99.90;;;;;;6714340;88;20088;-79
2023/09/14 20:33:51;;;;;;;;;;;16.20;99.90;;;;;;6717529;88;20116;-81
2023/09/14 20:43:53;;;;;;;;;;;15.80;99.90;;;;;;6691970;88;20053;-80
2023/09/14 20:53:54;;;;;;;;;;;15.60;99.90;;;;;;6709019;88;20594;-78
2023/09/14 21:03:54;;;;;;;;;;;15.70;99.90;;;;;;6710530;88;20093;-79
2023/09/14 21:13:55;;;;;;;;;;;15.70;99.90;;;;;;6706406;88;20059;-78
2023/09/14 21:23:55;;;;;;;;;;;15.60;99.90;;;;;;6707274;88;20059;-79
2023/09/14 21:33:56;;;;;;;;;;;15.40;99.90;;;;;;6706704;88;20180;-80
2023/09/14 21:43:56;;;;;;;;;;;15.20;99.90;;;;;;6704451;88;20436;-80
2023/09/14 21:53:57;;;;;;;;;;;15.00;99.90;;;;;;6728422;88;20078;-79
2023/09/14 22:03:57;;;;;;;;;;;14.80;99.90;;;;;;6723823;88;20202;-79
2023/09/14 22:13:57;;;;;;;;;;;14.70;99.90;;;;;;6721594;88;20183;-79
2023/09/14 22:24:02;;;;;;;;;;;14.80;99.90;;;;;;6722587;88;20497;-79
2023/09/14 22:34:03;;;;;;;;;;;14.70;99.90;;;;;;6724391;88;20062;-79
2023/09/14 22:44:04;;;;;;;;;;;14.60;99.90;;;;;;6730092;88;20132;-79
2023/09/14 22:54:05;;;;;;;;;;;14.40;99.90;;;;;;6724305;88;20069;-79
2023/09/14 23:04:05;;;;;;;;;;;14.20;99.90;;;;;;6727399;88;20139;-79
2023/09/14 23:14:07;;;;;;;;;;;14.10;99.90;;;;;;6725007;88;20054;-80
2023/09/14 23:24:09;;;;;;;;;;;14.10;99.90;;;;;;6726750;88;20070;-80
2023/09/14 23:34:10;;;;;;;;;;;13.90;99.90;;;;;;6729981;78;20121;-77
2023/09/14 23:44:13;;;;;;;;;;;13.80;99.90;;;;;;6717268;88;20058;-79
2023/09/14 23:54:14;;;;;;;;;;;13.80;99.90;;;;;;6711843;88;20583;-78
